Time;durP1;ratioP1;P1;durP2;ratioP2;P2;SDS_P1;SDS_P2;PMS_P1;PMS_P2;Temp;Humidity;BMP_temperature;BMP_pressure;BME280_temperature;BME280_humidity;BME280_pressure;Samples;Min_cycle;Max_cycle;Signal;HPM_P1;HPM_P2
2022/07/26 00:01:18;;;;;;;8.35;3.47;;;19.60;99.90;;;;;;5086784;28;20795;-67
2022/07/26 00:03:45;;;;;;;9.07;3.67;;;19.70;99.90;;;;;;5085982;28;20390;-66
2022/07/26 00:06:11;;;;;;;8.57;3.47;;;19.70;99.90;;;;;;5085901;28;20382;-66
2022/07/26 00:08:36;;;;;;;8.63;3.33;;;19.70;99.90;;;;;;5085890;28;20388;-66
2022/07/26 00:11:02;;;;;;;9.80;3.80;;;19.70;99.90;;;;;;5085393;28;20408;-66
2022/07/26 00:13:27;;;;;;;8.17;3.53;;;19.70;99.90;;;;;;5085718;28;20378;-66
2022/07/26 00:15:53;;;;;;;8.65;3.25;;;19.70;99.90;;;;;;5086717;28;20473;-66
2022/07/26 00:18:19;;;;;;;8.70;3.50;;;19.70;99.90;;;;;;5086988;28;20389;-66
2022/07/26 00:20:47;;;;;;;9.05;3.50;;;19.60;99.90;;;;;;5084995;28;20381;-66
2022/07/26 00:23:14;;;;;;;8.10;2.92;;;19.50;99.90;;;;;;5087476;28;20414;-66
2022/07/26 00:25:40;;;;;;;6.57;2.97;;;19.50;99.90;;;;;;5087763;28;20382;-66
2022/07/26 00:28:06;;;;;;;10.65;3.35;;;19.50;99.90;;;;;;5087436;28;20378;-66
2022/07/26 00:30:31;;;;;;;8.48;3.10;;;19.40;99.90;;;;;;5087137;28;20759;-66
2022/07/26 00:32:57;;;;;;;5.43;2.63;;;19.30;99.90;;;;;;5086002;28;20402;-66
2022/07/26 00:35:23;;;;;;;8.27;2.55;;;19.40;99.90;;;;;;5088517;28;20390;-64
2022/07/26 00:37:49;;;;;;;7.37;2.73;;;19.30;99.90;;;;;;5090248;28;20804;-66
2022/07/26 00:40:15;;;;;;;5.90;2.60;;;19.30;99.90;;;;;;5091065;28;20385;-66
2022/07/26 00:42:41;;;;;;;5.28;2.45;;;19.30;99.90;;;;;;5092362;28;20381;-66
2022/07/26 00:45:09;;;;;;;7.15;2.55;;;19.30;99.90;;;;;;5093470;28;20662;-66
2022/07/26 00:47:34;;;;;;;5.57;2.63;;;19.30;99.90;;;;;;5092364;28;20377;-66
2022/07/26 00:50:00;;;;;;;8.00;2.33;;;19.20;99.90;;;;;;5092509;28;20405;-66
2022/07/26 00:52:26;;;;;;;6.90;2.53;;;19.20;99.90;;;;;;5092757;28;20545;-67
2022/07/26 00:54:54;;;;;;;9.75;2.83;;;19.30;99.90;;;;;;5092310;28;20378;-67
2022/07/26 00:57:21;;;;;;;7.22;2.33;;;19.20;99.90;;;;;;5094659;28;20734;-66
2022/07/26 00:59:47;;;;;;;5.88;2.85;;;19.30;99.90;;;;;;5094689;28;20394;-66
2022/07/26 01:02:13;;;;;;;6.50;2.70;;;19.30;99.90;;;;;;5094318;28;20405;-64
2022/07/26 01:04:41;;;;;;;11.25;2.85;;;19.30;99.90;;;;;;5093993;28;20390;-66
2022/07/26 01:07:07;;;;;;;8.53;2.60;;;19.30;99.90;;;;;;5091532;28;20614;-66
2022/07/26 01:09:32;;;;;;;9.20;2.47;;;19.20;99.90;;;;;;5092859;28;20378;-66
2022/07/26 01:11:58;;;;;;;6.55;2.58;;;19.20;99.90;;;;;;5093841;28;20663;-66
2022/07/26 01:14:24;;;;;;;7.63;2.90;;;19.10;99.90;;;;;;5093447;28;20436;-66
2022/07/26 01:16:51;;;;;;;6.93;2.60;;;19.00;99.90;;;;;;5092831;28;20465;-66
2022/07/26 01:19:17;;;;;;;8.85;2.60;;;19.00;99.90;;;;;;5091916;28;20853;-66
2022/07/26 01:21:43;;;;;;;9.23;3.15;;;19.00;99.90;;;;;;5092400;28;20389;-66
2022/07/26 01:24:09;;;;;;;8.95;3.00;;;19.00;99.90;;;;;;5092196;28;20382;-66
2022/07/26 01:26:34;;;;;;;7.53;2.87;;;19.10;99.90;;;;;;5093434;28;20654;-66
2022/07/26 01:29:00;;;;;;;10.50;3.00;;;19.10;99.90;;;;;;5090684;28;20455;-66
2022/07/26 01:31:26;;;;;;;9.07;2.70;;;19.20;99.90;;;;;;5090167;28;20428;-66
2022/07/26 01:33:52;;;;;;;5.60;2.45;;;19.20;99.90;;;;;;5094843;28;20711;-66
2022/07/26 01:36:18;;;;;;;6.70;2.80;;;19.20;99.90;;;;;;5094267;28;20418;-66
2022/07/26 01:38:44;;;;;;;5.20;2.47;;;19.10;99.90;;;;;;5092946;28;20409;-66
2022/07/26 01:41:10;;;;;;;8.50;2.78;;;19.00;99.90;;;;;;5094094;28;20414;-66
2022/07/26 01:43:36;;;;;;;8.97;3.07;;;19.00;99.90;;;;;;5093466;28;20448;-66
2022/07/26 01:46:03;;;;;;;8.25;2.90;;;19.10;99.90;;;;;;5091736;28;20670;-66
2022/07/26 01:48:29;;;;;;;8.48;2.60;;;19.00;99.90;;;;;;5093272;28;20388;-66
2022/07/26 01:50:55;;;;;;;8.30;3.10;;;19.00;99.90;;;;;;5094797;28;20374;-66
2022/07/26 01:53:20;;;;;;;9.70;3.10;;;18.90;99.90;;;;;;5093095;28;20378;-66
2022/07/26 01:55:46;;;;;;;6.50;2.73;;;19.00;99.90;;;;;;5093743;28;20548;-66
2022/07/26 01:58:12;;;;;;;8.23;2.80;;;19.00;99.90;;;;;;5094000;28;20461;-66
2022/07/26 02:00:37;;;;;;;9.00;2.90;;;19.00;99.90;;;;;;5091669;28;20458;-66
2022/07/26 02:03:03;;;;;;;8.38;3.05;;;19.10;99.90;;;;;;5090776;28;20470;-66
2022/07/26 02:05:29;;;;;;;9.70;3.10;;;19.10;99.90;;;;;;5093380;28;20424;-67
2022/07/26 02:07:55;;;;;;;8.77;3.20;;;19.10;99.90;;;;;;5093068;28;20703;-66
2022/07/26 02:10:22;;;;;;;9.80;3.03;;;19.00;99.90;;;;;;5094907;28;20390;-66
2022/07/26 02:12:48;;;;;;;9.80;3.10;;;19.00;99.90;;;;;;5093559;28;20394;-66
2022/07/26 02:15:14;;;;;;;8.43;2.70;;;19.00;99.90;;;;;;5094097;28;20405;-66
2022/07/26 02:17:39;;;;;;;8.67;2.90;;;19.00;99.90;;;;;;5094178;28;20471;-66
2022/07/26 02:20:06;;;;;;;7.72;2.88;;;19.00;99.90;;;;;;5092362;28;20659;-66
2022/07/26 02:22:32;;;;;;;8.90;3.03;;;19.00;99.90;;;;;;5091603;28;20382;-66
2022/07/26 02:24:57;;;;;;;10.73;2.90;;;19.00;99.90;;;;;;5091605;28;20382;-66
2022/07/26 02:27:23;;;;;;;8.95;3.00;;;19.00;99.90;;;;;;5091258;28;20720;-66
2022/07/26 02:29:49;;;;;;;10.68;3.42;;;19.00;99.90;;;;;;5092043;28;20394;-66
2022/07/26 02:32:14;;;;;;;9.85;3.08;;;19.00;99.90;;;;;;5090556;28;20410;-66
2022/07/26 02:34:40;;;;;;;11.30;3.37;;;18.90;99.90;;;;;;5091691;28;20421;-64
2022/07/26 02:37:06;;;;;;;10.32;3.53;;;18.90;99.90;;;;;;5092673;28;20884;-64
2022/07/26 02:39:31;;;;;;;19.00;3.30;;;18.90;99.90;;;;;;5092973;28;20699;-64
2022/07/26 02:41:58;;;;;;;8.45;3.13;;;18.90;99.90;;;;;;5093534;28;20450;-64
2022/07/26 02:44:25;;;;;;;10.40;3.13;;;18.90;99.90;;;;;;5090313;28;20410;-64
2022/07/26 02:46:52;;;;;;;11.10;3.30;;;18.90;99.90;;;;;;5090878;28;20409;-64
2022/07/26 02:49:18;;;;;;;10.57;3.47;;;18.90;99.90;;;;;;5091856;28;20386;-64
2022/07/26 02:51:47;;;;;;;11.98;2.97;;;18.90;99.90;;;;;;5094033;28;20405;-64
2022/07/26 02:54:13;;;;;;;12.40;3.08;;;18.90;99.90;;;;;;5092135;28;20374;-64
2022/07/26 02:56:39;;;;;;;10.07;3.50;;;18.90;99.90;;;;;;5091516;28;20657;-64
2022/07/26 02:59:06;;;;;;;11.82;2.95;;;18.80;99.90;;;;;;5092316;28;20381;-64
2022/07/26 03:01:34;;;;;;;8.50;2.90;;;18.80;99.90;;;;;;5091339;28;20493;-64
2022/07/26 03:04:01;;;;;;;10.68;3.60;;;18.80;99.90;;;;;;5091442;28;20480;-64
2022/07/26 03:06:26;;;;;;;9.70;3.30;;;18.80;99.90;;;;;;5090248;28;20386;-64
2022/07/26 03:08:52;;;;;;;9.85;3.42;;;18.80;99.90;;;;;;5090658;28;20389;-64
2022/07/26 03:11:18;;;;;;;12.17;3.57;;;18.90;99.90;;;;;;5088613;28;20821;-66
2022/07/26 03:13:43;;;;;;;9.17;3.27;;;18.90;99.90;;;;;;5088278;28;20414;-66
2022/07/26 03:16:09;;;;;;;12.45;3.40;;;18.70;99.90;;;;;;5086737;28;20401;-66
2022/07/26 03:18:35;;;;;;;10.80;3.40;;;18.70;99.90;;;;;;5086203;28;20385;-66
2022/07/26 03:21:01;;;;;;;8.10;2.97;;;18.80;99.90;;;;;;5087652;28;20659;-66
2022/07/26 03:23:26;;;;;;;12.90;3.65;;;18.80;99.90;;;;;;5084342;28;20382;-66
2022/07/26 03:25:52;;;;;;;11.10;3.58;;;18.80;99.90;;;;;;5088093;28;20374;-66
2022/07/26 03:28:18;;;;;;;10.48;3.42;;;18.80;99.90;;;;;;5087378;28;20381;-66
2022/07/26 03:30:43;;;;;;;14.27;3.47;;;18.70;99.90;;;;;;5087118;28;20402;-64
2022/07/26 03:33:18;;;;;;;13.82;3.63;;;18.80;99.90;;;;;;5089272;28;20465;-64
2022/07/26 03:35:44;;;;;;;12.00;3.50;;;18.80;99.90;;;;;;5090361;28;20385;-64
2022/07/26 03:38:09;;;;;;;11.60;3.40;;;18.90;99.90;;;;;;5090289;28;20805;-64
2022/07/26 03:40:35;;;;;;;9.93;3.25;;;18.90;99.90;;;;;;5090555;28;20380;-64
2022/07/26 03:43:00;;;;;;;10.83;3.57;;;18.90;99.90;;;;;;5090593;28;20631;-64
2022/07/26 03:45:26;;;;;;;13.60;3.55;;;18.90;99.90;;;;;;5089201;28;20434;-64
2022/07/26 03:47:52;;;;;;;11.90;3.97;;;18.80;99.90;;;;;;5088450;28;20648;-64
2022/07/26 03:50:18;;;;;;;13.25;3.90;;;18.70;99.90;;;;;;5089598;28;20394;-64
2022/07/26 03:52:43;;;;;;;14.07;3.53;;;18.70;99.90;;;;;;5089092;28;20687;-66
2022/07/26 03:57:53;;;;;;;9.18;3.05;;;18.70;99.90;;;;;;5091931;28;20385;-64
2022/07/26 04:00:18;;;;;;;15.97;3.70;;;18.70;99.90;;;;;;5090888;28;20405;-66
2022/07/26 04:02:44;;;;;;;14.82;4.20;;;18.70;99.90;;;;;;5087150;28;20488;-66
2022/07/26 04:05:10;;;;;;;13.00;4.00;;;18.80;99.90;;;;;;5087451;28;20390;-64
2022/07/26 04:07:45;;;;;;;14.67;4.00;;;18.80;99.90;;;;;;5084978;28;20505;-66
2022/07/26 04:10:11;;;;;;;11.77;3.75;;;18.80;99.90;;;;;;5081911;28;20696;-66
2022/07/26 04:12:37;;;;;;;14.18;3.92;;;18.80;99.90;;;;;;5083517;28;20406;-66
2022/07/26 04:15:04;;;;;;;12.57;3.63;;;18.80;99.90;;;;;;5085449;28;20631;-66
2022/07/26 04:17:40;;;;;;;13.45;4.18;;;18.80;99.90;;;;;;5084650;28;20777;-66
2022/07/26 04:20:08;;;;;;;11.85;3.78;;;18.80;99.90;;;;;;5084180;28;20702;-66
2022/07/26 04:22:37;;;;;;;12.30;4.07;;;18.70;99.90;;;;;;5081130;28;20392;-63
2022/07/26 04:25:05;;;;;;;14.50;4.07;;;18.80;99.90;;;;;;5080849;28;20392;-64
2022/07/26 04:27:31;;;;;;;14.32;4.28;;;18.80;99.90;;;;;;5083358;28;20899;-66
2022/07/26 04:29:58;;;;;;;13.90;4.00;;;18.80;99.90;;;;;;5081813;28;20398;-66
2022/07/26 04:32:23;;;;;;;11.10;3.55;;;18.80;99.90;;;;;;5082093;28;20416;-64
2022/07/26 04:34:49;;;;;;;13.75;3.67;;;18.80;99.90;;;;;;5081847;28;20586;-64
2022/07/26 04:37:14;;;;;;;17.73;4.10;;;18.70;99.90;;;;;;5087806;28;20382;-64
2022/07/26 04:39:40;;;;;;;13.90;3.83;;;18.70;99.90;;;;;;5090052;28;20431;-64
2022/07/26 04:42:06;;;;;;;14.07;3.77;;;18.70;99.90;;;;;;5087605;28;20841;-64
2022/07/26 04:44:31;;;;;;;13.37;3.67;;;18.60;99.90;;;;;;5086753;28;20676;-64
2022/07/26 04:46:57;;;;;;;10.35;3.83;;;18.60;99.90;;;;;;5085690;28;20389;-64
2022/07/26 04:49:23;;;;;;;14.18;3.63;;;18.60;99.90;;;;;;5082710;28;20386;-64
2022/07/26 04:51:48;;;;;;;13.33;3.47;;;18.60;99.90;;;;;;5084504;28;20939;-64
2022/07/26 04:54:19;;;;;;;12.10;4.15;;;18.70;99.90;;;;;;5084437;28;20978;-64
2022/07/26 04:56:46;;;;;;;11.85;3.70;;;18.70;99.90;;;;;;5082394;28;20777;-64
2022/07/26 04:59:12;;;;;;;11.65;3.60;;;18.70;99.90;;;;;;5084375;28;20377;-64
2022/07/26 05:01:38;;;;;;;11.25;3.55;;;18.80;99.90;;;;;;5066979;28;20394;-64
2022/07/26 05:04:04;;;;;;;11.32;3.60;;;18.90;99.90;;;;;;5084967;28;20559;-64
2022/07/26 05:06:31;;;;;;;14.87;3.97;;;18.80;99.90;;;;;;5085600;28;20386;-67
2022/07/26 05:08:56;;;;;;;9.38;2.90;;;18.80;99.90;;;;;;5087929;28;20390;-66
2022/07/26 05:11:22;;;;;;;8.85;3.00;;;18.90;99.90;;;;;;5088118;28;20402;-64
2022/07/26 05:13:47;;;;;;;8.50;2.60;;;18.90;99.90;;;;;;5087301;28;20799;-64
2022/07/26 05:16:13;;;;;;;3.77;2.07;;;18.80;99.90;;;;;;5087030;28;20937;-66
2022/07/26 05:18:38;;;;;;;5.60;2.28;;;18.90;99.90;;;;;;5087493;28;20382;-64
2022/07/26 05:21:07;;;;;;;7.40;2.50;;;18.90;99.90;;;;;;5088655;28;20427;-65
2022/07/26 05:23:33;;;;;;;7.85;2.50;;;18.90;99.90;;;;;;5087069;28;20386;-64
2022/07/26 05:25:58;;;;;;;5.97;2.17;;;18.90;99.90;;;;;;5086883;28;20383;-64
2022/07/26 05:28:27;;;;;;;3.15;1.58;;;18.80;99.90;;;;;;5087245;28;20409;-64
2022/07/26 05:30:52;;;;;;;2.73;1.60;;;18.70;99.90;;;;;;5087091;28;20747;-64
2022/07/26 05:33:18;;;;;;;4.07;1.77;;;18.50;99.90;;;;;;5087174;28;20677;-64
2022/07/26 05:35:43;;;;;;;3.72;1.52;;;18.30;99.90;;;;;;5085998;28;20382;-64
2022/07/26 05:38:09;;;;;;;5.13;1.83;;;18.20;99.90;;;;;;5086575;28;20450;-64
2022/07/26 05:40:34;;;;;;;5.00;1.90;;;18.20;99.90;;;;;;5086164;28;20426;-64
2022/07/26 05:43:01;;;;;;;4.40;1.90;;;18.10;99.90;;;;;;5088075;28;20378;-67
2022/07/26 05:45:27;;;;;;;3.15;1.88;;;18.00;99.90;;;;;;5088680;28;20441;-64
2022/07/26 05:47:52;;;;;;;3.55;1.67;;;17.90;99.90;;;;;;5088194;28;20386;-67
2022/07/26 05:50:18;;;;;;;5.20;1.87;;;17.80;99.90;;;;;;5086048;28;20473;-67
2022/07/26 05:52:44;;;;;;;3.60;1.50;;;17.80;99.90;;;;;;5086597;28;20470;-67
2022/07/26 05:55:10;;;;;;;2.80;1.70;;;17.80;99.90;;;;;;5087830;28;20518;-67
2022/07/26 05:57:36;;;;;;;3.23;1.87;;;17.80;99.90;;;;;;5087703;28;20473;-64
2022/07/26 06:00:02;;;;;;;4.45;1.80;;;17.80;99.90;;;;;;5086698;28;20681;-64
2022/07/26 06:02:28;;;;;;;4.82;2.20;;;17.80;99.90;;;;;;5085250;28;20385;-64
2022/07/26 06:04:57;;;;;;;4.13;1.87;;;17.80;99.90;;;;;;5086306;28;20394;-64
2022/07/26 06:07:22;;;;;;;4.15;2.10;;;17.80;99.90;;;;;;5085824;28;20500;-64
2022/07/26 06:09:48;;;;;;;4.07;1.85;;;17.90;99.90;;;;;;5084963;28;20760;-64
2022/07/26 06:12:13;;;;;;;3.80;2.10;;;17.90;99.90;;;;;;5082376;28;20409;-64
2022/07/26 06:14:39;;;;;;;5.37;2.07;;;18.00;99.90;;;;;;5082414;28;20791;-64
2022/07/26 06:17:05;;;;;;;4.63;2.25;;;18.10;99.90;;;;;;5079793;28;20387;-64
2022/07/26 06:19:31;;;;;;;4.73;2.40;;;18.10;99.90;;;;;;5078366;28;20461;-64
2022/07/26 06:21:56;;;;;;;6.37;2.40;;;18.10;99.90;;;;;;5078962;28;20397;-64
2022/07/26 06:24:22;;;;;;;6.37;2.30;;;18.10;99.90;;;;;;5079027;28;20382;-64
2022/07/26 06:26:50;;;;;;;3.92;2.22;;;18.10;99.90;;;;;;5078881;28;20478;-64
2022/07/26 06:29:16;;;;;;;5.77;2.77;;;18.20;99.90;;;;;;5079705;28;20861;-64
2022/07/26 06:31:42;;;;;;;5.97;2.63;;;18.10;99.90;;;;;;5080300;28;20545;-67
2022/07/26 06:34:07;;;;;;;4.57;2.10;;;18.20;99.90;;;;;;5077864;28;20587;-67
2022/07/26 06:36:33;;;;;;;5.67;2.37;;;18.20;99.90;;;;;;5078300;28;20366;-66
2022/07/26 06:38:58;;;;;;;7.95;2.53;;;18.20;99.90;;;;;;5079674;28;20385;-64
2022/07/26 06:41:24;;;;;;;6.90;2.77;;;18.20;99.90;;;;;;5077980;28;20797;-66
2022/07/26 06:43:49;;;;;;;5.45;2.20;;;18.20;99.90;;;;;;5078620;28;20389;-66
2022/07/26 06:46:15;;;;;;;6.30;2.60;;;18.30;99.90;;;;;;5079324;28;20402;-66
2022/07/26 06:48:41;;;;;;;5.45;2.50;;;18.30;99.90;;;;;;5079480;28;20645;-66
2022/07/26 06:51:08;;;;;;;7.20;2.67;;;18.40;99.90;;;;;;5077294;28;20658;-66
2022/07/26 06:53:35;;;;;;;7.22;2.75;;;18.40;99.90;;;;;;5077212;28;20378;-66
2022/07/26 06:56:00;;;;;;;5.07;2.05;;;18.40;99.90;;;;;;5076698;28;20775;-66
2022/07/26 06:58:26;;;;;;;7.73;2.50;;;18.50;99.90;;;;;;5073151;28;20869;-66
2022/07/26 07:00:51;;;;;;;4.97;1.93;;;18.50;99.90;;;;;;5074587;28;20413;-66
2022/07/26 07:03:17;;;;;;;7.38;2.30;;;18.40;99.90;;;;;;5071629;28;20794;-66
2022/07/26 07:05:42;;;;;;;6.50;2.20;;;18.30;99.90;;;;;;5071758;28;20394;-66
2022/07/26 07:08:09;;;;;;;5.40;1.52;;;18.10;99.90;;;;;;5070518;28;20852;-66
2022/07/26 07:10:35;;;;;;;4.68;1.42;;;18.10;99.90;;;;;;5071076;28;20430;-66
2022/07/26 07:13:00;;;;;;;6.00;1.70;;;17.90;99.90;;;;;;5075280;28;20398;-66
2022/07/26 07:15:26;;;;;;;4.95;1.52;;;17.80;99.90;;;;;;5075273;28;20467;-66
2022/07/26 07:17:52;;;;;;;3.63;1.23;;;17.80;99.90;;;;;;5074485;28;20454;-66
2022/07/26 07:20:17;;;;;;;3.45;1.40;;;17.90;99.90;;;;;;5073441;28;20386;-66
2022/07/26 07:22:43;;;;;;;6.17;1.43;;;17.90;99.90;;;;;;5074596;28;20386;-66
2022/07/26 07:25:08;;;;;;;3.87;1.33;;;17.90;99.90;;;;;;5074819;28;20392;-66
2022/07/26 07:27:34;;;;;;;3.80;1.25;;;18.00;99.90;;;;;;5074162;28;20563;-66
2022/07/26 07:30:00;;;;;;;3.80;1.30;;;18.10;99.90;;;;;;5073823;28;20704;-66
2022/07/26 07:32:25;;;;;;;5.43;1.43;;;18.10;99.90;;;;;;5075354;28;20491;-66
2022/07/26 07:34:51;;;;;;;5.53;1.60;;;18.10;99.90;;;;;;5077486;28;20465;-66
2022/07/26 07:37:17;;;;;;;3.67;1.10;;;18.10;99.90;;;;;;5074587;28;20879;-67
2022/07/26 07:39:43;;;;;;;5.35;1.50;;;18.20;99.90;;;;;;5076320;28;20382;-66
2022/07/26 07:42:08;;;;;;;3.47;1.10;;;18.10;99.90;;;;;;5075470;28;20657;-66
2022/07/26 07:44:34;;;;;;;4.45;1.05;;;18.20;99.90;;;;;;5078763;28;20427;-66
2022/07/26 07:46:59;;;;;;;5.17;1.40;;;18.40;99.90;;;;;;5077257;28;20426;-66
2022/07/26 07:49:25;;;;;;;3.90;1.03;;;18.40;99.90;;;;;;5084751;28;20393;-66
2022/07/26 07:51:50;;;;;;;2.78;0.90;;;18.20;99.90;;;;;;5083271;28;20406;-66
2022/07/26 07:54:17;;;;;;;2.63;0.83;;;17.90;99.90;;;;;;5084663;28;20408;-66
2022/07/26 07:56:43;;;;;;;4.38;1.48;;;17.70;99.90;;;;;;5081723;28;20684;-66
2022/07/26 07:59:08;;;;;;;3.35;1.30;;;17.70;99.90;;;;;;5079761;28;20909;-66
2022/07/26 08:01:34;;;;;;;2.73;1.20;;;17.60;99.90;;;;;;5078812;28;20499;-66
2022/07/26 08:03:59;;;;;;;2.93;0.83;;;17.70;99.90;;;;;;5076580;28;20401;-66
2022/07/26 08:06:25;;;;;;;4.78;1.00;;;17.80;99.90;;;;;;5078714;28;20737;-66
2022/07/26 08:08:50;;;;;;;3.30;1.10;;;17.80;99.90;;;;;;5079763;28;20443;-66
2022/07/26 08:11:16;;;;;;;4.80;1.27;;;18.00;99.90;;;;;;5077706;28;20393;-66
2022/07/26 08:13:42;;;;;;;4.03;1.07;;;18.00;99.90;;;;;;5078254;28;20593;-66
2022/07/26 08:16:08;;;;;;;5.93;1.57;;;18.00;99.90;;;;;;5076245;28;20523;-66
2022/07/26 08:18:36;;;;;;;4.57;1.45;;;18.00;99.90;;;;;;5074725;28;20497;-66
2022/07/26 08:21:02;;;;;;;3.60;0.90;;;18.00;99.90;;;;;;5075449;28;20773;-66
2022/07/26 08:23:28;;;;;;;3.95;1.00;;;18.10;99.90;;;;;;5076630;28;20381;-66
2022/07/26 08:25:54;;;;;;;4.40;1.15;;;18.10;99.90;;;;;;5075669;28;20406;-66
2022/07/26 08:28:19;;;;;;;4.78;1.05;;;18.20;99.90;;;;;;5074866;28;20405;-66
2022/07/26 08:30:45;;;;;;;3.83;1.00;;;18.20;99.90;;;;;;5077023;28;20688;-64
2022/07/26 08:33:11;;;;;;;3.65;0.98;;;18.10;99.90;;;;;;5080457;28;20402;-66
2022/07/26 08:35:36;;;;;;;4.23;1.20;;;18.30;99.90;;;;;;5085227;28;20491;-66
2022/07/26 08:38:02;;;;;;;5.82;1.10;;;18.50;99.90;;;;;;5083349;28;20729;-66
2022/07/26 08:40:28;;;;;;;4.65;0.90;;;18.60;99.90;;;;;;5083678;28;20853;-66
2022/07/26 08:42:55;;;;;;;7.30;1.50;;;18.60;99.90;;;;;;5084378;28;20373;-66
2022/07/26 08:45:29;;;;;;;4.17;0.97;;;18.50;99.90;;;;;;5079865;28;20927;-66
2022/07/26 08:47:56;;;;;;;3.97;1.20;;;18.40;99.90;;;;;;5075953;28;20648;-66
2022/07/26 08:50:23;;;;;;;2.17;0.80;;;18.20;99.90;;;;;;5073460;28;20381;-66
2022/07/26 08:52:50;;;;;;;4.82;1.00;;;18.20;99.90;;;;;;5074764;28;20824;-66
2022/07/26 08:55:18;;;;;;;3.00;0.90;;;18.40;99.90;;;;;;5076672;28;20580;-66
2022/07/26 08:57:44;;;;;;;4.45;0.93;;;18.50;99.90;;;;;;5077608;28;20489;-66
2022/07/26 09:00:14;;;;;;;2.47;0.90;;;18.60;99.90;;;;;;5076995;28;20765;-66
2022/07/26 09:02:40;;;;;;;2.40;0.68;;;18.70;99.90;;;;;;5077674;28;20470;-66
2022/07/26 09:05:06;;;;;;;4.57;0.77;;;18.70;99.90;;;;;;5080747;28;20390;-66
2022/07/26 09:07:32;;;;;;;1.77;0.73;;;18.70;99.90;;;;;;5079131;28;20480;-66
2022/07/26 09:10:25;;;;;;;2.40;0.63;;;18.70;99.90;;;;;;5079109;28;20414;-66
2022/07/26 09:12:56;;;;;;;4.22;1.02;;;18.60;99.90;;;;;;5076330;28;20393;-66
2022/07/26 09:15:26;;;;;;;3.53;1.13;;;18.60;99.90;;;;;;5077011;28;20824;-66
2022/07/26 09:17:56;;;;;;;3.27;0.87;;;18.40;99.90;;;;;;5074172;28;20397;-66
2022/07/26 09:20:24;;;;;;;1.55;0.65;;;18.30;99.90;;;;;;5077136;28;20374;-66
2022/07/26 09:22:59;;;;;;;3.30;1.00;;;18.20;99.90;;;;;;5081596;28;20644;-66
2022/07/26 09:25:26;;;;;;;2.58;1.00;;;18.00;99.90;;;;;;5076729;28;20520;-66
2022/07/26 09:27:52;;;;;;;4.27;0.80;;;18.20;99.90;;;;;;5077407;28;21070;-66
2022/07/26 09:30:18;;;;;;;3.47;1.00;;;18.30;99.90;;;;;;5077710;28;20861;-66
2022/07/26 09:33:04;;;;;;;3.15;0.90;;;18.30;99.90;;;;;;5078572;28;20665;-66
2022/07/26 09:35:38;;;;;;;5.47;1.40;;;18.30;99.90;;;;;;5077908;28;21535;-66
2022/07/26 09:38:16;;;;;;;3.53;0.80;;;18.40;99.90;;;;;;5077103;28;20385;-66
2022/07/26 09:40:42;;;;;;;2.38;0.95;;;18.40;99.90;;;;;;5079209;28;20374;-66
2022/07/26 09:43:07;;;;;;;4.07;0.93;;;18.50;99.90;;;;;;5081486;28;20616;-66
2022/07/26 09:45:35;;;;;;;2.40;0.88;;;18.60;99.90;;;;;;5082156;28;20496;-64
2022/07/26 09:48:02;;;;;;;3.78;1.02;;;18.80;99.90;;;;;;5078964;28;20657;-66
2022/07/26 09:50:31;;;;;;;3.70;1.00;;;18.90;99.90;;;;;;5079602;28;20766;-66
2022/07/26 09:53:11;;;;;;;5.88;0.98;;;18.90;99.90;;;;;;5079900;28;20531;-66
2022/07/26 09:55:43;;;;;;;5.65;1.27;;;18.90;99.90;;;;;;5082416;28;20478;-66
2022/07/26 09:58:14;;;;;;;4.07;1.10;;;19.00;99.90;;;;;;5080733;28;20463;-66
2022/07/26 10:00:40;;;;;;;4.32;1.05;;;19.10;99.90;;;;;;5079437;28;20789;-66
2022/07/26 10:03:05;;;;;;;3.75;1.10;;;19.10;99.90;;;;;;5080569;28;20463;-66
2022/07/26 10:05:32;;;;;;;3.75;1.15;;;19.20;99.90;;;;;;5079698;28;20389;-66
2022/07/26 10:07:59;;;;;;;3.08;0.77;;;19.30;99.90;;;;;;5076927;28;20814;-66
2022/07/26 10:10:32;;;;;;;4.03;1.10;;;19.30;99.90;;;;;;5077153;28;20502;-66
2022/07/26 10:13:01;;;;;;;3.30;0.70;;;19.10;99.90;;;;;;5074944;28;20398;-66
2022/07/26 10:15:47;;;;;;;4.43;1.08;;;19.10;99.90;;;;;;5075371;28;20402;-66
2022/07/26 10:18:35;;;;;;;6.22;1.17;;;19.10;99.90;;;;;;5073468;28;20390;-66
2022/07/26 10:21:31;;;;;;;4.77;1.00;;;19.20;99.90;;;;;;5073297;28;20644;-66
2022/07/26 10:24:02;;;;;;;2.80;0.90;;;19.30;99.90;;;;;;5077868;28;20559;-64
2022/07/26 10:26:30;;;;;;;2.35;0.68;;;19.40;99.90;;;;;;5079321;28;20588;-67
2022/07/26 10:29:14;;;;;;;4.73;0.90;;;19.50;99.90;;;;;;5081732;28;20393;-66
2022/07/26 10:31:40;;;;;;;3.20;0.90;;;19.40;99.90;;;;;;5081700;28;20426;-66
2022/07/26 10:34:07;;;;;;;4.32;1.15;;;19.40;99.90;;;;;;5079224;28;20390;-66
2022/07/26 10:36:36;;;;;;;2.20;0.80;;;19.40;99.90;;;;;;5079359;28;20390;-66
2022/07/26 10:39:05;;;;;;;3.05;1.00;;;19.40;99.90;;;;;;5079126;28;20835;-66
2022/07/26 10:41:45;;;;;;;4.10;0.90;;;19.40;99.90;;;;;;5077644;28;20386;-66
2022/07/26 10:44:15;;;;;;;4.88;1.10;;;19.50;99.90;;;;;;5078521;28;20477;-66
2022/07/26 10:47:06;;;;;;;4.43;1.10;;;19.40;99.90;;;;;;5075940;28;20390;-66
2022/07/26 10:49:51;;;;;;;5.13;1.30;;;19.50;99.90;;;;;;5077539;28;20632;-66
2022/07/26 10:52:17;;;;;;;3.80;1.27;;;19.50;99.90;;;;;;5076889;28;20414;-66
2022/07/26 10:54:58;;;;;;;2.85;0.90;;;19.50;99.90;;;;;;5081716;28;20378;-66
2022/07/26 10:57:25;;;;;;;3.28;1.10;;;19.50;99.90;;;;;;5078576;28;20389;-66
2022/07/26 10:59:51;;;;;;;4.97;1.33;;;19.40;99.90;;;;;;5078526;28;20658;-66
2022/07/26 11:02:21;;;;;;;3.28;0.90;;;19.60;99.90;;;;;;5079144;28;20374;-66
2022/07/26 11:05:03;;;;;;;4.60;1.30;;;19.60;99.90;;;;;;5080244;28;20594;-66
2022/07/26 11:07:29;;;;;;;4.05;1.10;;;19.60;99.90;;;;;;5076311;28;20475;-66
2022/07/26 11:09:59;;;;;;;4.40;1.57;;;19.70;99.90;;;;;;5076877;28;20386;-67
2022/07/26 11:12:25;;;;;;;6.93;1.48;;;19.70;99.90;;;;;;5072844;28;20442;-66
2022/07/26 11:14:52;;;;;;;4.50;1.30;;;19.70;99.90;;;;;;5074455;28;20476;-66
2022/07/26 11:17:26;;;;;;;3.30;1.17;;;19.70;99.90;;;;;;5076576;28;20403;-66
2022/07/26 11:19:52;;;;;;;3.50;1.30;;;19.60;99.90;;;;;;5074560;28;20496;-66
2022/07/26 11:22:18;;;;;;;6.38;1.90;;;19.60;99.90;;;;;;5069450;28;20466;-66
2022/07/26 11:24:47;;;;;;;4.47;1.70;;;19.50;99.90;;;;;;5070529;28;20900;-66
2022/07/26 11:27:12;;;;;;;5.40;1.60;;;19.30;99.90;;;;;;5067762;28;20458;-66
2022/07/26 11:29:38;;;;;;;5.97;1.77;;;19.30;99.90;;;;;;5070077;28;20573;-66
2022/07/26 11:32:06;;;;;;;6.20;1.70;;;19.30;99.90;;;;;;5074753;28;20406;-66
2022/07/26 11:34:33;;;;;;;7.82;1.70;;;19.50;99.90;;;;;;5073220;28;21089;-66
2022/07/26 11:37:02;;;;;;;5.88;1.52;;;19.60;99.90;;;;;;5074929;28;20430;-66
2022/07/26 11:39:30;;;;;;;5.07;1.48;;;19.60;99.90;;;;;;5073847;28;20386;-64
2022/07/26 11:42:10;;;;;;;4.95;1.63;;;19.90;99.90;;;;;;5075817;28;20386;-67
2022/07/26 11:44:36;;;;;;;6.07;2.00;;;20.20;99.90;;;;;;5074286;28;20695;-64
2022/07/26 11:47:13;;;;;;;7.80;1.73;;;20.40;99.90;;;;;;5073668;28;20507;-64
2022/07/26 11:49:39;;;;;;;5.93;1.70;;;20.30;99.90;;;;;;5075394;28;20389;-65
2022/07/26 11:52:05;;;;;;;9.13;2.35;;;20.50;99.90;;;;;;5073314;28;20713;-64
2022/07/26 11:54:41;;;;;;;6.47;1.88;;;20.40;99.90;;;;;;5073712;28;20413;-64
2022/07/26 11:57:07;;;;;;;7.78;2.20;;;20.40;99.90;;;;;;5070488;28;20382;-64
2022/07/26 11:59:34;;;;;;;6.53;2.10;;;20.30;99.90;;;;;;5071720;28;20494;-65
2022/07/26 12:02:03;;;;;;;6.97;1.67;;;20.10;99.90;;;;;;5071571;28;20462;-64
2022/07/26 12:04:31;;;;;;;6.28;2.13;;;20.30;99.90;;;;;;5072621;28;20979;-65
2022/07/26 12:06:57;;;;;;;5.93;2.17;;;20.50;99.90;;;;;;5081849;28;20389;-65
2022/07/26 12:09:35;;;;;;;8.20;2.05;;;21.00;99.90;;;;;;5080587;28;20765;-65
2022/07/26 12:12:17;;;;;;;8.67;1.77;;;21.50;99.90;;;;;;5077817;28;21043;-65
2022/07/26 12:14:42;;;;;;;6.77;1.77;;;21.30;99.90;;;;;;5069844;28;20714;-65
2022/07/26 12:17:13;;;;;;;8.80;2.03;;;21.20;99.90;;;;;;5070388;28;20769;-65
2022/07/26 12:19:40;;;;;;;4.85;1.75;;;20.90;99.90;;;;;;5070708;28;20386;-65
2022/07/26 12:22:17;;;;;;;5.90;1.90;;;20.70;99.90;;;;;;5073662;28;20458;-65
2022/07/26 12:24:54;;;;;;;5.95;1.70;;;20.90;99.90;;;;;;5071377;28;20397;-65
2022/07/26 12:27:22;;;;;;;5.10;1.57;;;21.30;99.90;;;;;;5072282;28;20374;-65
2022/07/26 12:30:12;;;;;;;6.60;1.85;;;21.60;99.90;;;;;;5074883;28;20389;-65
2022/07/26 12:32:42;;;;;;;7.50;2.17;;;21.70;99.90;;;;;;5076648;28;20414;-65
2022/07/26 12:35:15;;;;;;;4.95;1.77;;;21.60;99.90;;;;;;5074852;28;20704;-66
2022/07/26 12:37:48;;;;;;;6.97;1.80;;;21.70;99.90;;;;;;5075677;28;20809;-65
2022/07/26 12:40:16;;;;;;;4.23;1.60;;;21.80;99.90;;;;;;5075507;28;20696;-65
2022/07/26 12:42:51;;;;;;;6.75;1.60;;;21.90;99.90;;;;;;5076770;28;20682;-66
2022/07/26 12:45:22;;;;;;;4.63;1.42;;;22.20;99.90;;;;;;5077000;28;20959;-65
2022/07/26 12:47:50;;;;;;;3.35;1.27;;;22.00;99.90;;;;;;5078839;28;20684;-66
2022/07/26 12:50:17;;;;;;;4.32;1.40;;;21.80;99.90;;;;;;5079565;28;20389;-65